createdAt,value
2023-01-20T00:01:29.023Z,93472.66
2023-01-20T00:03:56.511Z,93473.22
2023-01-20T00:06:24.755Z,93476.44
2023-01-20T00:08:52.521Z,93478.47
2023-01-20T00:11:19.444Z,93472.88
2023-01-20T00:13:46.015Z,93479.50
2023-01-20T00:16:12.819Z,93477.69
2023-01-20T00:18:40.500Z,93484.59
2023-01-20T00:21:12.548Z,93483.84
2023-01-20T00:23:40.530Z,93482.50
2023-01-20T00:26:09.495Z,93484.38
2023-01-20T00:28:36.506Z,93480.94
2023-01-20T00:31:28.571Z,93492.19
2023-01-20T00:33:56.800Z,93491.19
2023-01-20T00:36:24.539Z,93490.53
2023-01-20T00:38:51.332Z,93491.44
2023-01-20T00:41:18.360Z,93499.00
2023-01-20T00:43:45.421Z,93508.84
2023-01-20T00:46:12.460Z,93508.97
2023-01-20T00:48:38.986Z,93506.06
2023-01-20T00:51:07.111Z,93508.41
2023-01-20T00:53:33.814Z,93510.31
2023-01-20T00:56:00.795Z,93518.34
2023-01-20T00:58:27.388Z,93514.88
2023-01-20T01:00:55.251Z,93526.81
2023-01-20T01:03:22.224Z,93522.50
2023-01-20T01:05:48.769Z,93522.59
2023-01-20T01:08:15.432Z,93533.78
2023-01-20T01:10:42.370Z,93529.09
2023-01-20T01:13:09.671Z,93532.06
2023-01-20T01:15:36.648Z,93538.00
2023-01-20T01:18:03.843Z,93535.56
2023-01-20T01:20:30.418Z,93537.91
2023-01-20T01:22:56.998Z,93534.69
2023-01-20T01:25:23.800Z,93532.19
2023-01-20T01:27:50.340Z,93539.56
2023-01-20T01:30:17.268Z,93544.25
2023-01-20T01:32:43.929Z,93543.91
2023-01-20T01:35:10.478Z,93547.28
2023-01-20T01:37:37.171Z,93544.59
2023-01-20T01:40:04.116Z,93554.50
2023-01-20T01:42:30.683Z,93562.78
2023-01-20T01:45:12.931Z,93569.72
2023-01-20T01:47:48.400Z,93570.59
2023-01-20T01:50:25.006Z,93574.19
2023-01-20T01:52:53.984Z,93576.66
2023-01-20T01:55:27.293Z,93584.94
2023-01-20T01:57:54.863Z,93572.41
2023-01-20T02:00:26.497Z,93580.50
2023-01-20T02:02:53.833Z,93582.06
2023-01-20T02:05:21.786Z,93587.44
2023-01-20T02:07:49.017Z,93583.31
2023-01-20T02:10:16.518Z,93579.06
2023-01-20T02:12:47.312Z,93590.25
2023-01-20T02:15:14.367Z,93594.16
2023-01-20T02:18:02.385Z,93588.66
2023-01-20T02:21:11.219Z,93592.91
2023-01-20T02:23:53.115Z,93600.50
2023-01-20T02:26:19.663Z,93601.09
2023-01-20T02:29:13.485Z,93600.75
2023-01-20T02:32:16.739Z,93603.66
2023-01-20T02:34:59.131Z,93599.16
2023-01-20T02:37:29.255Z,93607.31
2023-01-20T02:40:20.695Z,93599.06
2023-01-20T02:42:57.046Z,93608.22
2023-01-20T02:45:31.895Z,93601.50
2023-01-20T02:48:05.602Z,93606.00
2023-01-20T02:50:40.712Z,93606.44
2023-01-20T02:53:09.047Z,93611.94
2023-01-20T02:55:54.969Z,93604.94
2023-01-20T02:58:38.065Z,93604.94
2023-01-20T03:01:12.736Z,93613.97
2023-01-20T03:03:43.965Z,93615.41
2023-01-20T03:06:16.376Z,93616.84
2023-01-20T03:08:44.985Z,93630.00
2023-01-20T03:11:11.893Z,93623.34
2023-01-20T03:13:54.156Z,93635.38
2023-01-20T03:16:23.542Z,93635.38
2023-01-20T03:18:51.335Z,93639.19
2023-01-20T03:21:19.085Z,93637.03
2023-01-20T03:23:49.221Z,93636.66
2023-01-20T03:26:17.693Z,93648.47
2023-01-20T03:28:45.749Z,93647.03
2023-01-20T03:31:21.826Z,93645.78
2023-01-20T03:33:50.599Z,93644.72
2023-01-20T03:36:19.466Z,93648.59
2023-01-20T03:38:46.490Z,93656.41
2023-01-20T03:41:46.976Z,93654.00
2023-01-20T03:44:32.222Z,93648.97
2023-01-20T03:47:37.288Z,93656.13
2023-01-20T03:50:32.904Z,93655.84
2023-01-20T03:53:27.966Z,93664.16
2023-01-20T03:56:24.214Z,93668.88
2023-01-20T03:58:54.098Z,93665.56
2023-01-20T04:01:26.552Z,93672.28
2023-01-20T04:03:54.985Z,93669.34
2023-01-20T04:06:23.898Z,93670.94
2023-01-20T04:09:00.987Z,93671.25
2023-01-20T04:11:27.897Z,93677.97
2023-01-20T04:13:55.194Z,93677.69
2023-01-20T04:16:23.227Z,93676.56
2023-01-20T04:18:51.412Z,93677.69
2023-01-20T04:21:32.654Z,93685.28
2023-01-20T04:24:07.741Z,93691.94
2023-01-20T04:26:34.303Z,93689.72
2023-01-20T04:29:09.327Z,93688.81
2023-01-20T04:31:38.017Z,93690.06
2023-01-20T04:34:05.388Z,93695.41
2023-01-20T04:36:31.933Z,93699.38
2023-01-20T04:38:58.550Z,93707.13
2023-01-20T04:41:25.117Z,93712.78
2023-01-20T04:43:51.642Z,93708.69
2023-01-20T04:46:18.198Z,93708.22
2023-01-20T04:48:46.260Z,93720.00
2023-01-20T04:51:13.190Z,93725.84
2023-01-20T04:53:39.799Z,93726.16
2023-01-20T04:56:11.800Z,93726.78
2023-01-20T04:58:38.783Z,93725.22
2023-01-20T05:01:05.418Z,93729.59
2023-01-20T05:03:31.999Z,93733.53
2023-01-20T05:05:58.536Z,93735.13
2023-01-20T05:08:25.103Z,93744.22
2023-01-20T05:10:51.653Z,93753.19
2023-01-20T05:13:18.264Z,93747.19
2023-01-20T05:15:45.033Z,93756.47
2023-01-20T05:18:11.609Z,93756.63
2023-01-20T05:20:38.221Z,93766.03
2023-01-20T05:23:04.830Z,93764.47
2023-01-20T05:25:31.353Z,93775.47
2023-01-20T05:27:59.451Z,93772.66
2023-01-20T05:30:26.079Z,93774.66
2023-01-20T05:32:52.610Z,93783.94
2023-01-20T05:35:19.528Z,93783.28
2023-01-20T05:37:46.058Z,93790.19
2023-01-20T05:40:12.711Z,93785.44
2023-01-20T05:42:39.805Z,93795.34
2023-01-20T05:45:07.075Z,93798.94
2023-01-20T05:47:33.583Z,93807.28
2023-01-20T05:50:00.133Z,93806.03
2023-01-20T05:52:26.644Z,93813.81
2023-01-20T05:54:53.175Z,93809.91
2023-01-20T05:57:19.838Z,93813.81
2023-01-20T05:59:47.784Z,93819.00
2023-01-20T06:02:18.676Z,93817.72
2023-01-20T06:04:46.296Z,93823.81
2023-01-20T06:07:12.833Z,93821.94
2023-01-20T06:09:39.477Z,93823.97
2023-01-20T06:12:06.404Z,93831.97
2023-01-20T06:14:32.948Z,93830.56
2023-01-20T06:16:59.523Z,93831.97
2023-01-20T06:19:26.078Z,93832.09
2023-01-20T06:21:53.546Z,93832.88
2023-01-20T06:24:20.106Z,93841.78
2023-01-20T06:26:46.649Z,93840.72
2023-01-20T06:29:13.193Z,93845.09
2023-01-20T06:31:39.846Z,93843.50
2023-01-20T06:34:06.420Z,93850.72
2023-01-20T06:36:32.959Z,93843.94
2023-01-20T06:38:59.485Z,93852.78
2023-01-20T06:41:26.016Z,93853.09
2023-01-20T06:43:52.644Z,93861.56
2023-01-20T06:46:19.250Z,93860.47
2023-01-20T06:48:46.366Z,93864.13
2023-01-20T06:51:16.599Z,93865.13
2023-01-20T06:53:43.383Z,93874.06
2023-01-20T06:56:12.233Z,93870.72
2023-01-20T06:58:39.191Z,93877.22
2023-01-20T07:01:12.821Z,93879.22
2023-01-20T07:03:41.340Z,93890.00
2023-01-20T07:06:29.796Z,93887.28
2023-01-20T07:08:58.911Z,93892.50
2023-01-20T07:11:26.619Z,93896.25
2023-01-20T07:13:53.394Z,93905.97
2023-01-20T07:16:20.438Z,93904.56
2023-01-20T07:18:48.885Z,93918.63
2023-01-20T07:21:15.819Z,93914.13
2023-01-20T07:23:42.382Z,93928.94
2023-01-20T07:26:11.772Z,93925.00
2023-01-20T07:28:39.317Z,93933.19
2023-01-20T07:31:08.316Z,93938.47
2023-01-20T07:33:35.517Z,93938.47
2023-01-20T07:36:02.612Z,93947.59
2023-01-20T07:38:29.761Z,93948.66
2023-01-20T07:41:02.431Z,93947.00
2023-01-20T07:43:30.195Z,93958.22
2023-01-20T07:46:02.281Z,93947.31
2023-01-20T07:48:31.778Z,93950.34
2023-01-20T07:51:05.122Z,93955.78
2023-01-20T07:53:33.752Z,93955.53
2023-01-20T07:56:06.969Z,93965.59
2023-01-20T07:58:34.094Z,93959.38
2023-01-20T08:01:12.908Z,93967.25
2023-01-20T08:03:39.663Z,93964.63
2023-01-20T08:06:08.925Z,93968.22
2023-01-20T08:08:35.679Z,93965.59
2023-01-20T08:11:03.344Z,93967.63
2023-01-20T08:13:29.964Z,93964.31
2023-01-20T08:16:00.153Z,93968.28
2023-01-20T08:18:27.342Z,93972.97
2023-01-20T08:20:54.550Z,93978.81
2023-01-20T08:23:21.242Z,93979.75
2023-01-20T08:25:47.805Z,93988.53
2023-01-20T08:28:14.453Z,93989.97
2023-01-20T08:30:41.238Z,93986.31
2023-01-20T08:33:07.823Z,93989.16
2023-01-20T08:35:36.360Z,93998.56
2023-01-20T08:38:03.502Z,93998.56
2023-01-20T08:40:30.072Z,94002.31
2023-01-20T08:42:56.689Z,94001.81
2023-01-20T08:45:23.863Z,94013.63
2023-01-20T08:47:50.590Z,94010.59
2023-01-20T08:50:17.518Z,94009.34
2023-01-20T08:52:44.162Z,94010.25
2023-01-20T08:55:11.932Z,94016.47
2023-01-20T08:57:38.545Z,94024.03
2023-01-20T09:00:09.184Z,94020.97
2023-01-20T09:02:37.718Z,94029.22
2023-01-20T09:05:05.102Z,94029.00
2023-01-20T09:07:31.660Z,94034.72
2023-01-20T09:09:58.294Z,94035.66
2023-01-20T09:12:24.900Z,94042.19
2023-01-20T09:14:51.461Z,94034.53
2023-01-20T09:17:18.078Z,94044.22
2023-01-20T09:19:44.687Z,94040.03
2023-01-20T09:22:11.255Z,94045.09
2023-01-20T09:24:37.800Z,94043.72
2023-01-20T09:27:04.547Z,94046.59
2023-01-20T09:29:31.771Z,94044.38
2023-01-20T09:31:58.585Z,94045.41
2023-01-20T09:34:27.809Z,94053.00
2023-01-20T09:36:57.316Z,94051.13
2023-01-20T09:39:42.912Z,94055.75
2023-01-20T09:42:49.258Z,94056.69
2023-01-20T09:45:58.941Z,94056.69
2023-01-20T09:49:01.273Z,94055.56
2023-01-20T09:52:30.182Z,94059.97
2023-01-20T09:55:02.557Z,94069.59
2023-01-20T09:57:33.282Z,94069.03
2023-01-20T10:00:11.950Z,94070.19
2023-01-20T10:02:41.518Z,94071.78
2023-01-20T10:05:13.411Z,94070.31
2023-01-20T10:07:56.549Z,94070.91
2023-01-20T10:10:38.150Z,94064.38
2023-01-20T10:13:20.244Z,94066.50
2023-01-20T10:15:54.223Z,94073.81
2023-01-20T10:18:40.760Z,94068.19
2023-01-20T10:21:31.913Z,94067.88
2023-01-20T10:24:04.688Z,94065.16
2023-01-20T10:26:44.205Z,94071.09
2023-01-20T10:29:20.165Z,94078.72
2023-01-20T10:32:01.145Z,94069.53
2023-01-20T10:34:37.008Z,94070.16
2023-01-20T10:37:10.129Z,94070.97
2023-01-20T10:39:56.085Z,94069.97
2023-01-20T10:42:24.700Z,94070.03
2023-01-20T10:44:52.559Z,94071.34
2023-01-20T10:47:36.232Z,94074.75
2023-01-20T10:50:02.765Z,94061.72
2023-01-20T10:52:56.395Z,94068.59
2023-01-20T10:55:47.405Z,94070.44
2023-01-20T10:58:22.782Z,94079.19
2023-01-20T11:00:50.615Z,94076.47
2023-01-20T11:03:20.402Z,94071.66
2023-01-20T11:05:48.646Z,94075.34
2023-01-20T11:08:22.808Z,94073.78
2023-01-20T11:10:54.353Z,94077.03
2023-01-20T11:13:20.918Z,94076.72
2023-01-20T11:15:50.727Z,94074.41
2023-01-20T11:18:17.225Z,94077.34
2023-01-20T11:20:52.714Z,94081.13
2023-01-20T11:23:30.181Z,94083.09
2023-01-20T11:25:58.245Z,94079.28
2023-01-20T11:28:25.193Z,94075.28
2023-01-20T11:30:53.917Z,94082.19
2023-01-20T11:33:25.255Z,94086.34
2023-01-20T11:35:59.287Z,94088.44
2023-01-20T11:38:44.402Z,94088.16
2023-01-20T11:41:21.332Z,94092.41
2023-01-20T11:43:49.304Z,94099.13
2023-01-20T11:46:19.517Z,94103.44
2023-01-20T11:48:47.197Z,94101.13
2023-01-20T11:51:28.187Z,94103.28
2023-01-20T11:54:08.140Z,94101.81
2023-01-20T11:56:46.883Z,94095.66
2023-01-20T11:59:31.776Z,94096.28
2023-01-20T12:02:08.388Z,94094.03
2023-01-20T12:04:37.629Z,94099.22
2023-01-20T12:07:46.796Z,94094.94
2023-01-20T12:10:22.056Z,94098.59
2023-01-20T12:12:53.218Z,94097.47
2023-01-20T12:15:23.992Z,94101.94
2023-01-20T12:17:58.292Z,94100.94
2023-01-20T12:20:54.544Z,94096.75
2023-01-20T12:23:24.883Z,94105.91
2023-01-20T12:25:58.024Z,94098.19
2023-01-20T12:28:42.455Z,94103.78
2023-01-20T12:31:17.235Z,94109.25
2023-01-20T12:33:45.495Z,94113.75
2023-01-20T12:36:31.044Z,94113.38
2023-01-20T12:39:25.401Z,94118.47
2023-01-20T12:42:10.262Z,94111.13
2023-01-20T12:44:48.981Z,94114.31
2023-01-20T12:47:18.509Z,94117.84
2023-01-20T12:50:03.571Z,94114.50
2023-01-20T12:52:48.415Z,94119.91
2023-01-20T12:55:49.005Z,94120.09
2023-01-20T12:58:35.259Z,94118.28
2023-01-20T13:01:20.860Z,94119.44
2023-01-20T13:04:25.090Z,94124.66
2023-01-20T13:07:33.474Z,94130.84
2023-01-20T13:10:33.903Z,94128.47
2023-01-20T13:13:15.070Z,94124.25
2023-01-20T13:15:45.728Z,94123.25
2023-01-20T13:18:22.027Z,94121.63
2023-01-20T13:20:48.794Z,94113.59
2023-01-20T13:23:18.683Z,94114.22
2023-01-20T13:25:47.353Z,94113.84
2023-01-20T13:28:23.351Z,94110.41
2023-01-20T13:30:54.048Z,94126.06
2023-01-20T13:33:41.954Z,94123.69
2023-01-20T13:36:20.472Z,94119.66
2023-01-20T13:38:49.541Z,94123.81
2023-01-20T13:41:47.069Z,94125.72
2023-01-20T13:44:35.844Z,94127.56
2023-01-20T13:47:04.310Z,94122.41
2023-01-20T13:49:53.619Z,94128.25
2023-01-20T13:52:54.853Z,94137.16
2023-01-20T13:55:30.941Z,94138.72
2023-01-20T13:57:57.436Z,94136.56
2023-01-20T14:00:24.040Z,94139.78
2023-01-20T14:02:51.398Z,94136.44
2023-01-20T14:05:28.011Z,94137.94
2023-01-20T14:07:55.678Z,94144.75
2023-01-20T14:10:22.277Z,94142.78
2023-01-20T14:12:48.776Z,94141.00
2023-01-20T14:15:28.128Z,94147.91
2023-01-20T14:17:57.404Z,94157.09
2023-01-20T14:20:25.296Z,94160.03
2023-01-20T14:22:52.143Z,94165.88
2023-01-20T14:25:27.798Z,94161.34
2023-01-20T14:27:54.385Z,94172.50
2023-01-20T14:30:24.104Z,94172.72
2023-01-20T14:32:51.963Z,94169.19
2023-01-20T14:35:28.970Z,94175.03
2023-01-20T14:37:55.740Z,94180.94
2023-01-20T14:40:35.781Z,94183.25
2023-01-20T14:43:20.200Z,94183.84
2023-01-20T14:45:49.664Z,94192.94
2023-01-20T14:48:32.649Z,94184.88
2023-01-20T14:51:02.619Z,94184.38
2023-01-20T14:53:29.382Z,94187.06
2023-01-20T14:56:07.662Z,94186.47
2023-01-20T14:58:35.056Z,94188.19
2023-01-20T15:01:06.633Z,94192.38
2023-01-20T15:03:33.261Z,94189.09
2023-01-20T15:06:01.357Z,94189.44
2023-01-20T15:08:56.924Z,94202.44
2023-01-20T15:11:31.200Z,94207.06
2023-01-20T15:14:01.044Z,94198.53
2023-01-20T15:16:27.750Z,94193.53
2023-01-20T15:19:13.015Z,94197.34
2023-01-20T15:21:42.220Z,94193.28
2023-01-20T15:24:23.493Z,94197.56
2023-01-20T15:26:52.668Z,94208.66
2023-01-20T15:29:26.959Z,94206.16
2023-01-20T15:31:55.787Z,94208.53
2023-01-20T15:34:23.824Z,94205.25
2023-01-20T15:36:51.963Z,94210.16
2023-01-20T15:39:29.148Z,94205.25
2023-01-20T15:41:57.253Z,94208.72
2023-01-20T15:44:25.387Z,94217.09
2023-01-20T15:46:54.158Z,94213.78
2023-01-20T15:49:21.868Z,94212.22
2023-01-20T15:51:48.477Z,94218.53
2023-01-20T15:54:15.018Z,94228.00
2023-01-20T15:56:42.583Z,94223.25
2023-01-20T15:59:14.839Z,94227.34
2023-01-20T16:01:41.587Z,94228.31
2023-01-20T16:04:09.373Z,94227.34
2023-01-20T16:06:37.427Z,94231.59
2023-01-20T16:09:19.511Z,94237.16
2023-01-20T16:11:47.514Z,94236.03
2023-01-20T16:14:14.183Z,94244.38
2023-01-20T16:16:41.064Z,94243.13
2023-01-20T16:19:07.589Z,94242.34
2023-01-20T16:21:34.111Z,94248.47
2023-01-20T16:24:00.689Z,94248.19
2023-01-20T16:26:28.768Z,94246.13
2023-01-20T16:28:57.301Z,94251.00
2023-01-20T16:31:25.605Z,94251.66
2023-01-20T16:33:53.176Z,94260.81
2023-01-20T16:36:21.799Z,94261.94
2023-01-20T16:38:49.342Z,94262.06
2023-01-20T16:41:21.414Z,94271.22
2023-01-20T16:43:48.670Z,94256.53
2023-01-20T16:46:21.561Z,94264.44
2023-01-20T16:48:48.404Z,94259.06
2023-01-20T16:51:17.669Z,94260.03
2023-01-20T16:53:44.266Z,94254.03
2023-01-20T16:56:16.185Z,94258.75
2023-01-20T16:58:43.113Z,94259.06
2023-01-20T17:01:12.693Z,94264.75
2023-01-20T17:03:40.225Z,94263.50
2023-01-20T17:06:18.189Z,94266.00
2023-01-20T17:08:50.433Z,94270.72
2023-01-20T17:11:21.220Z,94272.16
2023-01-20T17:13:48.137Z,94273.06
2023-01-20T17:16:14.900Z,94281.91
2023-01-20T17:18:45.244Z,94282.81
2023-01-20T17:21:13.677Z,94289.72
2023-01-20T17:23:41.101Z,94281.06
2023-01-20T17:26:08.991Z,94277.75
2023-01-20T17:28:35.750Z,94293.47
2023-01-20T17:31:04.182Z,94291.28
2023-01-20T17:33:31.084Z,94292.06
2023-01-20T17:35:59.075Z,94286.81
2023-01-20T17:38:26.932Z,94291.72
2023-01-20T17:40:53.485Z,94289.03
2023-01-20T17:43:20.040Z,94282.53
2023-01-20T17:45:46.754Z,94293.06
2023-01-20T17:48:13.338Z,94300.63
2023-01-20T17:50:39.977Z,94293.56
2023-01-20T17:53:06.516Z,94299.09
2023-01-20T17:55:33.136Z,94295.91
2023-01-20T17:57:59.654Z,94297.66
2023-01-20T18:00:26.324Z,94300.66
2023-01-20T18:02:56.230Z,94306.69
2023-01-20T18:05:22.794Z,94309.78
2023-01-20T18:07:50.113Z,94314.84
2023-01-20T18:10:17.547Z,94322.22
2023-01-20T18:12:44.680Z,94325.53
2023-01-20T18:15:11.176Z,94321.75
2023-01-20T18:17:38.156Z,94323.97
2023-01-20T18:20:05.372Z,94327.28
2023-01-20T18:22:31.906Z,94326.94
2023-01-20T18:24:58.638Z,94331.78
2023-01-20T18:27:30.166Z,94321.22
2023-01-20T18:29:56.789Z,94323.22
2023-01-20T18:32:23.319Z,94330.66
2023-01-20T18:34:49.941Z,94319.63
2023-01-20T18:37:16.537Z,94316.44
2023-01-20T18:39:43.896Z,94318.31
2023-01-20T18:42:11.232Z,94315.44
2023-01-20T18:44:37.783Z,94317.78
2023-01-20T18:47:08.019Z,94320.25
2023-01-20T18:49:34.689Z,94317.13
2023-01-20T18:52:01.536Z,94319.81
2023-01-20T18:54:32.298Z,94320.41
2023-01-20T18:56:58.828Z,94316.88
2023-01-20T18:59:26.038Z,94318.41
2023-01-20T19:01:52.961Z,94317.59
2023-01-20T19:04:19.504Z,94321.63
2023-01-20T19:06:46.197Z,94324.44
2023-01-20T19:09:13.368Z,94331.47
2023-01-20T19:11:41.308Z,94320.94
2023-01-20T19:14:11.623Z,94318.13
2023-01-20T19:16:39.356Z,94320.03
2023-01-20T19:19:07.056Z,94316.09
2023-01-20T19:21:36.081Z,94317.06
2023-01-20T19:24:05.911Z,94316.50
2023-01-20T19:26:35.501Z,94312.91
2023-01-20T19:29:05.657Z,94315.78
2023-01-20T19:31:34.862Z,94320.81
2023-01-20T19:34:01.612Z,94315.47
2023-01-20T19:36:28.246Z,94315.28
2023-01-20T19:38:54.824Z,94313.41
2023-01-20T19:41:27.629Z,94318.22
2023-01-20T19:43:57.080Z,94316.75
2023-01-20T19:46:26.127Z,94316.63
2023-01-20T19:48:54.381Z,94316.84
2023-01-20T19:51:21.260Z,94310.81
2023-01-20T19:53:50.157Z,94318.00
2023-01-20T19:56:19.291Z,94317.81
2023-01-20T19:58:47.308Z,94312.84
2023-01-20T20:01:15.303Z,94318.41
2023-01-20T20:03:42.439Z,94311.69
2023-01-20T20:06:26.816Z,94312.41
2023-01-20T20:08:55.802Z,94316.16
2023-01-20T20:11:22.370Z,94316.94
2023-01-20T20:13:49.102Z,94321.50
2023-01-20T20:16:16.200Z,94318.63
2023-01-20T20:18:42.952Z,94312.41
2023-01-20T20:21:09.708Z,94326.53
2023-01-20T20:23:36.362Z,94329.28
2023-01-20T20:26:02.973Z,94323.47
2023-01-20T20:28:29.743Z,94326.47
2023-01-20T20:31:03.448Z,94326.47
2023-01-20T20:33:31.319Z,94325.38
2023-01-20T20:35:58.069Z,94334.16
2023-01-20T20:38:24.723Z,94329.91
2023-01-20T20:40:58.329Z,94334.16
2023-01-20T20:43:25.245Z,94329.31
2023-01-20T20:45:52.671Z,94327.34
2023-01-20T20:48:19.672Z,94334.97
2023-01-20T20:50:46.248Z,94333.09
2023-01-20T20:53:12.916Z,94336.44
2023-01-20T20:55:42.280Z,94339.09
2023-01-20T20:58:09.494Z,94342.84
2023-01-20T21:00:37.445Z,94339.69
2023-01-20T21:03:07.374Z,94339.78
2023-01-20T21:05:35.231Z,94343.53
2023-01-20T21:08:04.661Z,94343.47
2023-01-20T21:10:31.340Z,94344.47
2023-01-20T21:12:58.034Z,94341.78
2023-01-20T21:15:24.683Z,94344.34
2023-01-20T21:17:51.324Z,94346.44
2023-01-20T21:20:18.237Z,94343.00
2023-01-20T21:22:44.905Z,94335.47
2023-01-20T21:25:12.280Z,94339.44
2023-01-20T21:27:38.870Z,94337.66
2023-01-20T21:30:06.082Z,94341.28
2023-01-20T21:32:33.026Z,94338.94
2023-01-20T21:35:02.028Z,94346.03
2023-01-20T21:37:28.732Z,94342.00
2023-01-20T21:39:55.334Z,94342.59
2023-01-20T21:42:21.987Z,94345.06
2023-01-20T21:44:48.542Z,94345.56
2023-01-20T21:47:15.064Z,94347.94
2023-01-20T21:50:00.145Z,94352.25
2023-01-20T21:52:42.007Z,94348.59
2023-01-20T21:55:18.843Z,94358.06
2023-01-20T21:57:51.222Z,94357.16
2023-01-20T22:00:18.654Z,94354.50
2023-01-20T22:02:45.561Z,94352.94
2023-01-20T22:05:13.002Z,94353.88
2023-01-20T22:07:39.630Z,94350.00
2023-01-20T22:10:07.652Z,94352.69
2023-01-20T22:12:35.530Z,94358.88
2023-01-20T22:15:03.439Z,94354.44
2023-01-20T22:17:30.782Z,94365.00
2023-01-20T22:19:57.577Z,94363.59
2023-01-20T22:22:24.081Z,94359.91
2023-01-20T22:24:50.758Z,94366.19
2023-01-20T22:27:17.292Z,94365.94
2023-01-20T22:29:43.827Z,94368.88
2023-01-20T22:32:10.483Z,94374.72
2023-01-20T22:34:37.104Z,94373.94
2023-01-20T22:37:04.428Z,94376.09
2023-01-20T22:39:33.412Z,94385.53
2023-01-20T22:42:00.053Z,94379.19
2023-01-20T22:44:26.656Z,94386.13
2023-01-20T22:46:53.179Z,94380.28
2023-01-20T22:49:20.195Z,94384.31
2023-01-20T22:51:46.840Z,94383.44
2023-01-20T22:54:13.453Z,94385.53
2023-01-20T22:56:40.065Z,94383.50
2023-01-20T22:59:06.694Z,94387.50
2023-01-20T23:01:37.327Z,94383.28
2023-01-20T23:04:06.241Z,94385.25
2023-01-20T23:06:35.697Z,94383.72
2023-01-20T23:09:11.995Z,94385.81
2023-01-20T23:11:40.083Z,94381.28
2023-01-20T23:14:07.334Z,94390.16
2023-01-20T23:16:33.898Z,94390.41
2023-01-20T23:19:00.479Z,94394.88
2023-01-20T23:21:27.082Z,94390.16
2023-01-20T23:23:56.231Z,94394.25
2023-01-20T23:26:25.422Z,94398.78
2023-01-20T23:28:53.675Z,94392.16
2023-01-20T23:31:21.828Z,94390.72
2023-01-20T23:33:48.635Z,94389.56
2023-01-20T23:36:23.742Z,94392.00
2023-01-20T23:38:50.285Z,94392.72
2023-01-20T23:41:17.037Z,94391.56
2023-01-20T23:43:43.640Z,94391.06
2023-01-20T23:46:10.562Z,94388.59
2023-01-20T23:48:37.995Z,94388.59
2023-01-20T23:51:06.337Z,94388.47
2023-01-20T23:53:36.581Z,94386.09
2023-01-20T23:56:05.546Z,94392.22
2023-01-20T23:58:32.134Z,94390.63
